General Aviation Weather

Text Reports

Enter one or more of the following location identifiers separated by a space:

Zip Code, Four-Character ICAO or Three-Character IATA airport codes.

METAR - Aviation Routine Weather Report
KJYL - Sylvania, Georgia
Updated at 4:35 PM GMT on November 22, 2014 (11:35 AM EST):
METAR KJYL 221635Z AUTO 08009KT 10SM CLR 18/M02 A3046 RMK AO2 T01791023
TAF - Terminal Area Forecast
KJYL - Sylvania, Georgia
Updated at 4:35 PM GMT on November 22, 2014 (11:35 AM EST):
No TAF is currently available for this location.
Decoded:
No decoded TAF is available.
PIREP - Pilot Weather Report
KJYL - Sylvania, Georgia
Updated at 4:35 PM GMT on November 22, 2014 (11:35 AM EST):
No PIREP is currently available for this location.
AIRMET - Airmens Meteorological Information
KJYL - Sylvania, Georgia
Updated at 4:35 PM GMT on November 22, 2014 (11:35 AM EST):
No AIRMET is currently available for this location.
SIGMET - Significant Meteorological Information
KJYL - Sylvania, Georgia
Updated at 4:35 PM GMT on November 22, 2014 (11:35 AM EST):
No SIGMET is currently available for this location.
NOTAM - Notice to Airmen
KJYL - Sylvania, Georgia
Updated at 4:35 PM GMT on November 22, 2014 (11:35 AM EST):
No NOTAM is currently available for this location.
Forecast Area
KJYL - Sylvania, Georgia
Updated at 4:35 PM GMT on November 22, 2014 (11:35 AM EST):
No NOTAM is currently available for this location.
Aviation Weather Maps